Time;durP1;ratioP1;P1;durP2;ratioP2;P2;SDS_P1;SDS_P2;PMS_P1;PMS_P2;Temp;Humidity;BMP_temperature;BMP_pressure;BME280_temperature;BME280_humidity;BME280_pressure;Samples;Min_cycle;Max_cycle;Signal;HPM_P1;HPM_P2
2023/10/04 00:01:59;;;;;;;20.48;8.90;;;;;;;;;;10485784;28;20120;-80
2023/10/04 00:07:03;;;;;;;23.67;9.95;;;;;;;;;;10484838;28;20028;-80
2023/10/04 00:12:04;;;;;;;17.92;8.45;;;;;;;;;;10486013;28;20021;-83
2023/10/04 00:17:04;;;;;;;18.37;8.97;;;;;;;;;;10486466;28;20029;-85
2023/10/04 00:22:05;;;;;;;23.60;8.57;;;;;;;;;;10489579;28;20512;-78
2023/10/04 00:27:06;;;;;;;20.88;9.63;;;;;;;;;;10492770;28;20047;-78
2023/10/04 00:32:07;;;;;;;15.68;8.30;;;;;;;;;;10497798;28;20068;-88
2023/10/04 00:37:09;;;;;;;21.70;9.25;;;;;;;;;;10491799;28;20575;-84
2023/10/04 00:42:10;;;;;;;16.42;8.57;;;;;;;;;;10492795;28;20056;-83
2023/10/04 00:47:10;;;;;;;22.45;9.10;;;;;;;;;;10490945;28;20532;-83
2023/10/04 00:52:11;;;;;;;16.80;8.70;;;;;;;;;;10490109;28;20029;-80
2023/10/04 00:57:13;;;;;;;17.90;9.35;;;;;;;;;;10506930;28;20350;-83
2023/10/04 01:02:14;;;;;;;19.00;9.52;;;;;;;;;;10507106;28;20125;-81
2023/10/04 01:07:16;;;;;;;21.23;10.45;;;;;;;;;;10506996;28;20175;-80
2023/10/04 01:12:21;;;;;;;21.67;9.90;;;;;;;;;;10507417;28;20021;-78
2023/10/04 01:17:22;;;;;;;17.35;9.25;;;;;;;;;;10489822;28;20024;-78
2023/10/04 01:22:23;;;;;;;20.65;9.90;;;;;;;;;;10497337;28;20025;-82
2023/10/04 01:27:26;;;;;;;20.58;9.98;;;;;;;;;;10489962;28;20395;-82
2023/10/04 01:32:27;;;;;;;16.40;8.85;;;;;;;;;;10488162;28;20525;-77
2023/10/04 01:37:31;;;;;;;20.75;10.02;;;;;;;;;;10488962;28;20112;-76
2023/10/04 01:42:31;;;;;;;19.27;9.77;;;;;;;;;;10488977;28;20036;-83
2023/10/04 01:47:31;;;;;;;21.08;9.38;;;;;;;;;;10487943;28;20024;-82
2023/10/04 01:52:32;;;;;;;21.17;9.60;;;;;;;;;;10492627;28;20020;-79
2023/10/04 01:57:33;;;;;;;18.30;9.20;;;;;;;;;;10489951;28;20029;-83
2023/10/04 02:02:33;;;;;;;20.80;9.40;;;;;;;;;;10490693;28;20024;-77
2023/10/04 02:07:38;;;;;;;24.90;9.48;;;;;;;;;;10488779;28;20032;-81
2023/10/04 02:12:39;;;;;;;291.27;273.73;;;;;;;;;;10486080;28;20396;-78
2023/10/04 02:17:39;;;;;;;21.35;9.05;;;;;;;;;;10487040;28;20016;-77
2023/10/04 02:22:40;;;;;;;31.27;9.55;;;;;;;;;;10486467;28;20515;-77
2023/10/04 02:27:44;;;;;;;23.92;11.65;;;;;;;;;;10487700;28;20426;-79
2023/10/04 02:32:44;;;;;;;17.58;9.68;;;;;;;;;;10486314;28;20059;-77
2023/10/04 02:37:44;;;;;;;23.40;9.80;;;;;;;;;;10487024;28;20024;-81
2023/10/04 02:42:46;;;;;;;19.48;9.55;;;;;;;;;;10465033;28;20025;-78
2023/10/04 02:47:49;;;;;;;22.40;10.82;;;;;;;;;;10478675;28;20082;-82
2023/10/04 02:52:50;;;;;;;19.30;9.55;;;;;;;;;;10481504;28;20620;-86
2023/10/04 02:57:51;;;;;;;196.80;178.93;;;;;;;;;;10472561;28;20088;-84
2023/10/04 03:02:53;;;;;;;21.20;10.13;;;;;;;;;;10467180;28;20018;-85
2023/10/04 03:07:54;;;;;;;27.25;13.65;;;;;;;;;;10481373;28;20391;-86
2023/10/04 03:13:00;;;;;;;29.52;11.13;;;;;;;;;;10487130;28;20012;-83
2023/10/04 03:18:13;;;;;;;25.00;10.50;;;;;;;;;;10486457;28;20451;-83
2023/10/04 03:23:19;;;;;;;22.63;9.93;;;;;;;;;;10486879;28;20054;-81
2023/10/04 03:28:21;;;;;;;16.67;9.05;;;;;;;;;;10485030;28;20016;-81
2023/10/04 03:33:21;;;;;;;19.15;10.70;;;;;;;;;;10486747;28;20054;-81
2023/10/04 03:38:21;;;;;;;18.27;8.73;;;;;;;;;;10485663;28;20024;-81
2023/10/04 03:43:21;;;;;;;22.75;10.35;;;;;;;;;;10487413;28;20033;-86
2023/10/04 03:48:23;;;;;;;28.60;11.32;;;;;;;;;;10485651;28;20025;-80
2023/10/04 03:53:24;;;;;;;24.23;10.48;;;;;;;;;;10462679;28;20017;-80
2023/10/04 03:58:24;;;;;;;22.20;9.38;;;;;;;;;;10466905;28;20017;-81
2023/10/04 04:03:24;;;;;;;20.55;9.07;;;;;;;;;;10493616;28;20500;-83
2023/10/04 04:08:27;;;;;;;16.58;9.18;;;;;;;;;;10496507;28;20039;-83
2023/10/04 04:13:28;;;;;;;17.45;9.70;;;;;;;;;;10493264;28;20062;-82
2023/10/04 04:18:30;;;;;;;21.50;10.20;;;;;;;;;;10514287;28;20111;-90
2023/10/04 04:23:31;;;;;;;21.27;10.02;;;;;;;;;;10474383;28;20083;-84
2023/10/04 04:28:35;;;;;;;25.77;9.93;;;;;;;;;;10485105;28;20017;-85
2023/10/04 04:33:38;;;;;;;28.20;11.10;;;;;;;;;;10509081;28;20075;-86
2023/10/04 04:38:38;;;;;;;20.20;9.68;;;;;;;;;;10518252;28;20021;-84
2023/10/04 04:43:39;;;;;;;23.77;9.67;;;;;;;;;;10500546;28;20029;-81
2023/10/04 04:48:39;;;;;;;22.08;10.18;;;;;;;;;;10492311;28;20535;-81
2023/10/04 04:53:43;;;;;;;19.33;8.60;;;;;;;;;;10494661;28;20116;-82
2023/10/04 04:58:49;;;;;;;25.80;10.30;;;;;;;;;;10516732;28;20020;-85
2023/10/04 05:03:52;;;;;;;20.17;9.40;;;;;;;;;;10498985;28;20029;-85
2023/10/04 05:08:54;;;;;;;20.42;9.13;;;;;;;;;;10494999;28;20460;-82
2023/10/04 05:13:55;;;;;;;17.17;8.90;;;;;;;;;;10489745;28;20312;-82
2023/10/04 05:18:56;;;;;;;24.33;10.00;;;;;;;;;;10484254;28;20507;-83
2023/10/04 05:23:56;;;;;;;20.08;9.55;;;;;;;;;;10491187;28;20027;-82
2023/10/04 05:28:58;;;;;;;45.78;28.23;;;;;;;;;;10512068;28;20084;-89
2023/10/04 05:33:58;;;;;;;21.33;10.07;;;;;;;;;;10526398;28;20097;-85
2023/10/04 05:39:01;;;;;;;22.45;10.23;;;;;;;;;;10526301;28;20020;-82
2023/10/04 05:44:03;;;;;;;20.67;10.90;;;;;;;;;;10527660;28;20020;-89
2023/10/04 05:49:09;;;;;;;19.88;10.55;;;;;;;;;;10530767;28;20008;-79
2023/10/04 05:54:10;;;;;;;19.65;9.13;;;;;;;;;;10531628;28;20058;-86
2023/10/04 05:59:12;;;;;;;21.77;9.88;;;;;;;;;;10526354;28;20043;-83
2023/10/04 06:04:12;;;;;;;16.48;9.50;;;;;;;;;;10503623;28;20025;-82
2023/10/04 06:09:26;;;;;;;19.27;9.40;;;;;;;;;;10511951;28;20021;-83
2023/10/04 06:14:26;;;;;;;15.68;8.88;;;;;;;;;;10537114;28;20041;-82
2023/10/04 06:19:28;;;;;;;19.67;8.98;;;;;;;;;;10502785;28;20024;-81
2023/10/04 06:24:28;;;;;;;22.83;9.52;;;;;;;;;;10489559;28;20393;-84
2023/10/04 06:29:29;;;;;;;21.15;9.68;;;;;;;;;;10493668;28;20025;-82
2023/10/04 06:34:30;;;;;;;20.05;8.93;;;;;;;;;;10489090;28;20078;-82
2023/10/04 06:39:30;;;;;;;21.00;9.10;;;;;;;;;;10495999;28;20070;-82
2023/10/04 06:44:31;;;;;;;21.20;9.15;;;;;;;;;;10499262;28;20020;-82
2023/10/04 06:49:31;;;;;;;26.65;9.40;;;;;;;;;;10458615;28;20025;-80
2023/10/04 06:54:32;;;;;;;21.83;8.38;;;;;;;;;;10499763;28;20020;-83
2023/10/04 06:59:33;;;;;;;19.60;9.15;;;;;;;;;;10491870;28;20029;-81
2023/10/04 07:04:33;;;;;;;23.50;10.40;;;;;;;;;;10486768;28;20024;-83
2023/10/04 07:09:39;;;;;;;22.77;9.73;;;;;;;;;;10488410;28;20074;-81
2023/10/04 07:14:40;;;;;;;25.65;9.98;;;;;;;;;;10486220;28;20547;-81
2023/10/04 07:19:40;;;;;;;30.93;10.73;;;;;;;;;;10483846;28;20025;-86
2023/10/04 07:24:40;;;;;;;44.00;13.23;;;;;;;;;;10487191;28;20090;-81
2023/10/04 07:29:40;;;;;;;24.83;10.40;;;;;;;;;;10483628;28;20017;-85
2023/10/04 07:34:41;;;;;;;21.67;9.48;;;;;;;;;;10485187;28;20049;-84
2023/10/04 07:39:42;;;;;;;33.90;11.88;;;;;;;;;;10485627;28;20016;-84
2023/10/04 07:44:43;;;;;;;23.08;10.63;;;;;;;;;;10484464;28;20021;-82
2023/10/04 07:49:43;;;;;;;22.17;10.57;;;;;;;;;;10483330;28;20063;-83
2023/10/04 07:54:43;;;;;;;26.17;11.48;;;;;;;;;;10490715;28;20016;-87
2023/10/04 07:59:43;;;;;;;18.93;11.03;;;;;;;;;;10486525;28;20023;-85
2023/10/04 08:04:48;;;;;;;26.00;11.60;;;;;;;;;;10484985;28;20078;-82
2023/10/04 08:09:48;;;;;;;32.30;13.40;;;;;;;;;;10483226;28;20017;-83
2023/10/04 08:14:49;;;;;;;23.83;10.95;;;;;;;;;;10469508;28;20039;-85
2023/10/04 08:19:49;;;;;;;33.30;10.52;;;;;;;;;;10483695;28;20087;-84
2023/10/04 08:24:49;;;;;;;18.43;10.17;;;;;;;;;;10484469;28;20036;-85
2023/10/04 08:29:50;;;;;;;20.97;8.87;;;;;;;;;;10487269;28;20404;-91
2023/10/04 08:34:50;;;;;;;23.65;9.52;;;;;;;;;;10484906;28;20558;-81
2023/10/04 08:39:50;;;;;;;17.45;9.43;;;;;;;;;;10482966;28;20077;-83
2023/10/04 08:44:51;;;;;;;18.10;8.63;;;;;;;;;;10494614;28;20028;-91
2023/10/04 08:49:55;;;;;;;21.80;9.57;;;;;;;;;;10495122;28;20019;-82
2023/10/04 08:54:58;;;;;;;24.92;9.98;;;;;;;;;;10502608;28;20020;-85
2023/10/04 08:59:59;;;;;;;22.63;9.98;;;;;;;;;;10491455;28;20047;-83
2023/10/04 09:05:00;;;;;;;27.08;9.77;;;;;;;;;;10488912;28;20024;-81
2023/10/04 09:10:00;;;;;;;19.30;8.90;;;;;;;;;;10492811;28;20483;-81
2023/10/04 09:15:01;;;;;;;29.30;9.75;;;;;;;;;;10491175;28;20435;-87
2023/10/04 09:20:11;;;;;;;22.88;9.98;;;;;;;;;;10474014;28;20459;-85
2023/10/04 09:25:12;;;;;;;25.77;9.77;;;;;;;;;;10492087;28;20020;-87
2023/10/04 09:30:22;;;;;;;20.43;9.33;;;;;;;;;;10491774;28;20404;-85
2023/10/04 09:35:22;;;;;;;22.00;9.57;;;;;;;;;;10498915;28;20048;-82
2023/10/04 09:40:23;;;;;;;24.13;10.23;;;;;;;;;;10487622;28;20013;-83
2023/10/04 09:45:24;;;;;;;25.23;10.15;;;;;;;;;;10496313;28;20017;-84
2023/10/04 09:50:25;;;;;;;26.77;9.63;;;;;;;;;;10493783;28;20008;-86
2023/10/04 09:55:31;;;;;;;25.00;9.52;;;;;;;;;;10498045;28;20028;-82
2023/10/04 10:00:32;;;;;;;19.50;9.15;;;;;;;;;;10486800;28;20039;-84
2023/10/04 10:05:32;;;;;;;24.15;9.00;;;;;;;;;;10488121;28;20025;-80
2023/10/04 10:10:37;;;;;;;18.97;7.97;;;;;;;;;;10487022;28;20040;-84
2023/10/04 10:15:53;;;;;;;17.10;6.82;;;;;;;;;;10493442;28;20070;-92
2023/10/04 10:20:57;;;;;;;13.65;6.75;;;;;;;;;;10495849;28;20202;-88
2023/10/04 10:26:19;;;;;;;15.55;6.15;;;;;;;;;;10489130;28;20049;-83
2023/10/04 10:31:20;;;;;;;17.88;6.15;;;;;;;;;;10487435;28;20099;-83
2023/10/04 10:36:25;;;;;;;12.00;5.13;;;;;;;;;;10486858;28;20052;-82
2023/10/04 10:41:29;;;;;;;10.02;5.57;;;;;;;;;;10485837;28;20107;-83
2023/10/04 10:46:30;;;;;;;12.60;5.32;;;;;;;;;;10454051;28;20447;-80
2023/10/04 10:51:42;;;;;;;14.75;6.13;;;;;;;;;;10453485;28;20017;-82
2023/10/04 10:56:43;;;;;;;11.43;5.45;;;;;;;;;;10484837;28;20104;-82
2023/10/04 11:01:44;;;;;;;11.80;4.75;;;;;;;;;;10484335;28;20547;-82
2023/10/04 11:06:47;;;;;;;12.75;4.97;;;;;;;;;;10480563;28;20059;-84
2023/10/04 11:11:50;;;;;;;11.20;5.55;;;;;;;;;;10438032;28;20111;-84
2023/10/04 11:16:51;;;;;;;12.15;3.88;;;;;;;;;;10487541;28;20538;-83
2023/10/04 11:21:52;;;;;;;9.48;4.43;;;;;;;;;;10484433;28;20028;-86
2023/10/04 11:26:56;;;;;;;13.05;5.40;;;;;;;;;;10488539;28;20104;-81
2023/10/04 11:32:01;;;;;;;11.50;5.35;;;;;;;;;;10452465;28;20056;-87
2023/10/04 11:37:02;;;;;;;11.55;5.13;;;;;;;;;;10477571;28;20028;-81
2023/10/04 11:42:03;;;;;;;11.88;4.75;;;;;;;;;;10485865;28;20114;-83
2023/10/04 11:47:04;;;;;;;10.50;4.40;;;;;;;;;;10474300;28;20036;-84
2023/10/04 11:52:05;;;;;;;8.52;4.45;;;;;;;;;;10492587;28;20116;-82
2023/10/04 11:57:05;;;;;;;13.93;4.75;;;;;;;;;;10495355;28;20111;-82
2023/10/04 12:02:06;;;;;;;10.30;4.00;;;;;;;;;;10489062;28;20028;-81
2023/10/04 12:07:08;;;;;;;13.35;5.03;;;;;;;;;;10485369;28;20027;-85
2023/10/04 12:12:09;;;;;;;11.32;4.55;;;;;;;;;;10484649;28;20048;-82
2023/10/04 12:17:09;;;;;;;9.82;4.43;;;;;;;;;;10470149;28;20111;-82
2023/10/04 12:22:09;;;;;;;14.10;5.10;;;;;;;;;;10492011;28;20021;-81
2023/10/04 12:27:09;;;;;;;14.37;4.97;;;;;;;;;;10490791;28;20036;-87
2023/10/04 12:32:10;;;;;;;15.55;5.53;;;;;;;;;;10490284;28;20589;-82
2023/10/04 12:37:10;;;;;;;9.90;4.40;;;;;;;;;;10491291;28;20400;-82
2023/10/04 12:42:11;;;;;;;13.00;4.87;;;;;;;;;;10491176;28;20024;-82
2023/10/04 12:47:12;;;;;;;12.77;5.15;;;;;;;;;;10493171;28;20078;-83
2023/10/04 12:52:16;;;;;;;12.07;5.18;;;;;;;;;;10493975;28;20504;-88
2023/10/04 12:57:17;;;;;;;11.18;4.75;;;;;;;;;;10492225;28;20036;-86
2023/10/04 13:02:18;;;;;;;17.52;4.70;;;;;;;;;;10508114;28;20090;-83
2023/10/04 13:07:19;;;;;;;10.77;4.45;;;;;;;;;;10501223;28;20024;-83
2023/10/04 13:12:19;;;;;;;14.90;4.88;;;;;;;;;;10488607;28;20408;-84
2023/10/04 13:17:20;;;;;;;8.27;4.20;;;;;;;;;;10490179;28;20172;-85
2023/10/04 13:22:22;;;;;;;11.18;4.20;;;;;;;;;;10499735;28;20448;-83
2023/10/04 13:27:23;;;;;;;14.02;8.23;;;;;;;;;;10498085;28;20033;-84
2023/10/04 13:32:39;;;;;;;15.02;4.72;;;;;;;;;;10504952;28;20041;-82
2023/10/04 13:37:40;;;;;;;12.70;4.50;;;;;;;;;;10492621;28;20028;-78
2023/10/04 13:42:44;;;;;;;14.40;5.40;;;;;;;;;;10504000;28;20449;-85
2023/10/04 13:47:45;;;;;;;9.02;3.97;;;;;;;;;;10489492;28;20478;-84
2023/10/04 13:52:45;;;;;;;10.80;4.53;;;;;;;;;;10470822;28;20032;-77
2023/10/04 13:57:46;;;;;;;11.13;5.17;;;;;;;;;;10474990;28;20017;-77
2023/10/04 14:02:46;;;;;;;10.23;4.50;;;;;;;;;;10480946;28;20455;-78
2023/10/04 14:07:53;;;;;;;9.55;4.47;;;;;;;;;;10465207;28;20028;-77
2023/10/04 14:12:55;;;;;;;16.50;5.05;;;;;;;;;;10475210;28;20476;-79
2023/10/04 14:17:57;;;;;;;11.80;5.20;;;;;;;;;;10483312;28;20114;-77
2023/10/04 14:22:58;;;;;;;13.45;6.03;;;;;;;;;;10470857;28;20038;-84
2023/10/04 14:27:58;;;;;;;14.63;4.80;;;;;;;;;;10470135;28;20443;-80
2023/10/04 14:32:58;;;;;;;12.80;5.07;;;;;;;;;;10474122;28;20045;-77
2023/10/04 14:37:59;;;;;;;16.30;6.43;;;;;;;;;;10471251;28;20091;-76
2023/10/04 14:43:00;;;;;;;10.85;4.60;;;;;;;;;;10454792;28;20040;-77
2023/10/04 14:48:00;;;;;;;14.57;4.05;;;;;;;;;;10474068;28;20507;-76
2023/10/04 14:53:00;;;;;;;11.93;4.82;;;;;;;;;;10483079;28;20035;-79
2023/10/04 14:58:00;;;;;;;14.10;5.18;;;;;;;;;;10481549;28;20108;-76
2023/10/04 15:03:01;;;;;;;12.82;5.22;;;;;;;;;;10482761;28;20440;-76
2023/10/04 15:08:03;;;;;;;17.23;5.18;;;;;;;;;;10483141;28;20028;-76
2023/10/04 15:13:03;;;;;;;19.33;5.63;;;;;;;;;;10483572;28;20055;-75
2023/10/04 15:18:04;;;;;;;14.80;5.90;;;;;;;;;;10483049;28;20127;-76
2023/10/04 15:23:05;;;;;;;20.77;6.07;;;;;;;;;;10486364;28;20468;-76
2023/10/04 15:28:12;;;;;;;15.50;5.45;;;;;;;;;;10484334;28;20033;-76
2023/10/04 15:33:12;;;;;;;12.65;5.28;;;;;;;;;;10481644;28;20439;-75
2023/10/04 15:38:13;;;;;;;22.25;6.25;;;;;;;;;;10482286;28;20035;-75
2023/10/04 15:43:17;;;;;;;19.13;6.50;;;;;;;;;;10466030;28;20081;-80
2023/10/04 15:48:17;;;;;;;23.20;6.43;;;;;;;;;;10484259;28;20492;-75
2023/10/04 15:53:18;;;;;;;15.23;5.85;;;;;;;;;;10488914;28;20028;-76
2023/10/04 15:58:18;;;;;;;24.50;8.60;;;;;;;;;;10491708;28;20024;-81
2023/10/04 16:03:20;;;;;;;13.18;5.93;;;;;;;;;;10490397;28;20043;-77
2023/10/04 16:08:20;;;;;;;19.73;6.57;;;;;;;;;;10492063;28;20036;-82
2023/10/04 16:13:21;;;;;;;20.77;6.95;;;;;;;;;;10490483;28;20089;-77
2023/10/04 16:18:28;;;;;;;14.77;5.60;;;;;;;;;;10492132;28;20032;-79
2023/10/04 16:23:28;;;;;;;16.10;6.90;;;;;;;;;;10491740;28;20389;-80
2023/10/04 16:28:29;;;;;;;20.75;6.75;;;;;;;;;;10491533;28;20035;-79
2023/10/04 16:33:29;;;;;;;21.17;6.93;;;;;;;;;;10490322;28;20044;-84
2023/10/04 16:38:29;;;;;;;28.60;6.93;;;;;;;;;;10490276;28;20671;-80
2023/10/04 16:43:30;;;;;;;18.23;7.57;;;;;;;;;;10491293;28;20047;-80
2023/10/04 16:48:32;;;;;;;21.38;6.85;;;;;;;;;;10491460;28;20066;-79
2023/10/04 16:53:32;;;;;;;19.50;7.07;;;;;;;;;;10488967;28;20109;-80
2023/10/04 16:58:34;;;;;;;23.02;6.72;;;;;;;;;;10489960;28;20028;-79
2023/10/04 17:03:36;;;;;;;18.63;6.63;;;;;;;;;;10490136;28;20352;-82
2023/10/04 17:08:36;;;;;;;21.42;7.38;;;;;;;;;;10467684;28;20092;-81
2023/10/04 17:13:37;;;;;;;16.87;7.23;;;;;;;;;;10462505;28;20020;-78
2023/10/04 17:18:37;;;;;;;27.75;7.50;;;;;;;;;;10455705;28;20033;-81
2023/10/04 17:23:37;;;;;;;21.70;7.97;;;;;;;;;;10453091;28;20059;-81
2023/10/04 17:28:37;;;;;;;23.38;7.80;;;;;;;;;;10464779;28;20146;-79
2023/10/04 17:33:41;;;;;;;24.33;7.97;;;;;;;;;;10463305;28;20499;-81
2023/10/04 17:38:42;;;;;;;22.85;8.73;;;;;;;;;;10455038;28;20691;-83
2023/10/04 17:43:43;;;;;;;20.50;7.07;;;;;;;;;;10465192;28;20044;-81
2023/10/04 17:48:43;;;;;;;18.65;6.90;;;;;;;;;;10463181;28;20009;-83
2023/10/04 17:53:43;;;;;;;22.40;12.15;;;;;;;;;;10449616;28;20016;-85
2023/10/04 17:58:44;;;;;;;22.52;7.72;;;;;;;;;;10461494;28;20485;-79
2023/10/04 18:03:48;;;;;;;19.90;8.40;;;;;;;;;;10452368;28;20017;-87
2023/10/04 18:08:53;;;;;;;20.40;10.07;;;;;;;;;;10471108;28;20021;-81
2023/10/04 18:13:53;;;;;;;21.95;8.13;;;;;;;;;;10459108;28;20106;-77
2023/10/04 18:18:55;;;;;;;21.92;8.50;;;;;;;;;;10462120;28;20112;-83
2023/10/04 18:23:57;;;;;;;18.58;7.75;;;;;;;;;;10455689;28;20016;-81
2023/10/04 18:28:57;;;;;;;21.33;7.25;;;;;;;;;;10474217;28;20416;-87
2023/10/04 18:34:05;;;;;;;21.90;7.70;;;;;;;;;;10474395;28;20048;-81
2023/10/04 18:39:05;;;;;;;19.98;7.82;;;;;;;;;;10462077;28;20655;-82
2023/10/04 18:44:10;;;;;;;17.48;7.65;;;;;;;;;;10459051;28;20096;-81
2023/10/04 18:49:10;;;;;;;12.32;6.53;;;;;;;;;;10460698;28;20021;-81
2023/10/04 18:54:11;;;;;;;13.80;7.13;;;;;;;;;;10467829;28;20035;-82
2023/10/04 18:59:11;;;;;;;20.65;6.90;;;;;;;;;;10455883;28;20031;-78
2023/10/04 19:04:12;;;;;;;19.08;6.97;;;;;;;;;;10460233;28;20541;-76
2023/10/04 19:09:13;;;;;;;16.13;6.50;;;;;;;;;;10451929;28;20189;-77
2023/10/04 19:14:14;;;;;;;17.25;7.28;;;;;;;;;;10461916;28;20021;-77
2023/10/04 19:19:16;;;;;;;16.70;5.43;;;;;;;;;;10460673;28;20036;-76
2023/10/04 19:24:17;;;;;;;13.93;6.72;;;;;;;;;;10451587;28;20098;-74
2023/10/04 19:29:17;;;;;;;17.02;7.40;;;;;;;;;;10464077;28;20050;-75
2023/10/04 19:34:18;;;;;;;17.50;8.37;;;;;;;;;;10457064;28;20049;-75
2023/10/04 19:39:18;;;;;;;19.10;7.90;;;;;;;;;;10450651;28;20830;-75
2023/10/04 19:44:18;;;;;;;13.57;7.30;;;;;;;;;;10455774;28;20032;-75
2023/10/04 19:49:19;;;;;;;18.02;8.60;;;;;;;;;;10468183;28;20587;-75
2023/10/04 19:54:19;;;;;;;15.10;8.43;;;;;;;;;;10471058;28;20032;-78
2023/10/04 19:59:19;;;;;;;13.73;8.73;;;;;;;;;;10453999;28;20028;-75
2023/10/04 20:04:22;;;;;;;21.02;8.35;;;;;;;;;;10458316;28;20039;-79
2023/10/04 20:09:26;;;;;;;15.15;9.05;;;;;;;;;;10464728;28;20021;-80
2023/10/04 20:14:29;;;;;;;29.33;19.10;;;;;;;;;;10456128;28;20025;-74
2023/10/04 20:19:32;;;;;;;17.42;9.55;;;;;;;;;;10450334;28;20037;-79
2023/10/04 20:24:34;;;;;;;22.08;11.43;;;;;;;;;;10461052;28;20037;-83
2023/10/04 20:29:34;;;;;;;21.23;10.45;;;;;;;;;;10438680;28;20048;-74
2023/10/04 20:34:35;;;;;;;16.95;9.15;;;;;;;;;;10448933;28;20075;-81
2023/10/04 20:39:35;;;;;;;16.40;9.80;;;;;;;;;;10459992;28;20063;-78
2023/10/04 20:44:35;;;;;;;22.90;11.90;;;;;;;;;;10465618;28;20693;-78
2023/10/04 20:49:36;;;;;;;18.50;11.20;;;;;;;;;;10459088;28;20480;-75
2023/10/04 20:54:36;;;;;;;177.40;158.45;;;;;;;;;;10460157;28;20029;-76
2023/10/04 20:59:36;;;;;;;20.58;12.13;;;;;;;;;;10458437;28;20029;-76
2023/10/04 21:04:36;;;;;;;20.35;11.68;;;;;;;;;;10455929;28;20052;-75
2023/10/04 21:09:37;;;;;;;19.83;11.73;;;;;;;;;;10469871;28;20020;-75
2023/10/04 21:14:38;;;;;;;1034.68;936.05;;;;;;;;;;10456470;28;20036;-77
2023/10/04 21:19:38;;;;;;;1008.53;916.27;;;;;;;;;;10463429;28;20033;-77
2023/10/04 21:24:43;;;;;;;604.15;546.42;;;;;;;;;;10487083;28;20643;-82
2023/10/04 21:29:46;;;;;;;27.63;11.93;;;;;;;;;;10493612;28;20023;-82
2023/10/04 21:34:48;;;;;;;20.50;12.90;;;;;;;;;;10486749;28;20513;-75
2023/10/04 21:39:51;;;;;;;22.20;12.30;;;;;;;;;;10489571;28;20021;-76
2023/10/04 21:44:51;;;;;;;21.48;12.70;;;;;;;;;;10488101;28;20392;-75
2023/10/04 21:49:51;;;;;;;20.80;12.53;;;;;;;;;;10486275;28;20029;-76
2023/10/04 21:54:53;;;;;;;25.95;12.63;;;;;;;;;;10486852;28;20685;-76
2023/10/04 21:59:53;;;;;;;880.88;797.38;;;;;;;;;;10486387;28;20105;-81
2023/10/04 22:04:53;;;;;;;18.65;12.05;;;;;;;;;;10487512;28;20077;-75
2023/10/04 22:09:54;;;;;;;23.67;12.93;;;;;;;;;;10485782;28;20510;-75
2023/10/04 22:14:55;;;;;;;23.67;13.10;;;;;;;;;;10485597;28;20444;-78
2023/10/04 22:19:56;;;;;;;22.30;12.95;;;;;;;;;;10485577;28;20658;-76
2023/10/04 22:24:56;;;;;;;18.45;11.35;;;;;;;;;;10485317;28;20016;-72
2023/10/04 22:29:56;;;;;;;24.65;13.27;;;;;;;;;;10485066;28;20028;-76
2023/10/04 22:34:57;;;;;;;23.23;11.57;;;;;;;;;;10501471;28;20066;-79
2023/10/04 22:39:58;;;;;;;20.83;10.95;;;;;;;;;;10485909;28;20019;-79
2023/10/04 22:44:58;;;;;;;19.50;12.05;;;;;;;;;;10468053;28;20021;-75
2023/10/04 22:49:58;;;;;;;23.80;12.60;;;;;;;;;;10500865;28;20017;-76
2023/10/04 22:54:59;;;;;;;17.60;11.70;;;;;;;;;;10485042;28;20023;-78
2023/10/04 22:59:59;;;;;;;26.53;11.43;;;;;;;;;;10470121;28;20025;-82
2023/10/04 23:04:59;;;;;;;17.80;10.77;;;;;;;;;;10443114;28;20651;-75
2023/10/04 23:10:00;;;;;;;22.40;11.05;;;;;;;;;;10442984;28;20068;-76
2023/10/04 23:15:01;;;;;;;18.98;10.63;;;;;;;;;;10474802;28;20023;-82
2023/10/04 23:20:30;;;;;;;530.10;479.17;;;;;;;;;;10466563;28;20577;-78
2023/10/04 23:25:23;;;;;;;21.27;10.52;;;;;;;;;;10485334;28;20481;-79
2023/10/04 23:30:23;;;;;;;25.83;10.27;;;;;;;;;;10483395;28;20472;-76
2023/10/04 23:35:38;;;;;;;19.53;10.60;;;;;;;;;;10483988;28;20127;-77
2023/10/04 23:40:45;;;;;;;18.65;10.85;;;;;;;;;;10485703;28;20411;-75
2023/10/04 23:45:46;;;;;;;16.48;9.75;;;;;;;;;;10483849;28;20483;-76
2023/10/04 23:50:48;;;;;;;19.35;10.38;;;;;;;;;;10484878;28;20132;-84
2023/10/04 23:55:49;;;;;;;18.60;9.85;;;;;;;;;;10470289;28;20024;-80
